createdAt,value
2022-12-18T00:00:59.288Z,-0.56
2022-12-18T00:04:07.737Z,-0.56
2022-12-18T00:07:10.517Z,-0.54
2022-12-18T00:10:15.488Z,-0.52
2022-12-18T00:13:18.360Z,-0.45
2022-12-18T00:16:23.404Z,-0.52
2022-12-18T00:19:26.375Z,-0.57
2022-12-18T00:22:29.035Z,-0.61
2022-12-18T00:25:34.538Z,-0.60
2022-12-18T00:28:37.616Z,-0.56
2022-12-18T00:31:43.243Z,-0.54
2022-12-18T00:34:47.915Z,-0.54
2022-12-18T00:37:51.446Z,-0.57
2022-12-18T00:40:54.246Z,-0.56
2022-12-18T00:43:56.691Z,-0.53
2022-12-18T00:46:59.574Z,-0.56
2022-12-18T00:50:02.249Z,-0.58
2022-12-18T00:53:05.211Z,-0.59
2022-12-18T00:56:08.114Z,-0.59
2022-12-18T00:59:10.829Z,-0.53
2022-12-18T01:02:15.075Z,-0.46
2022-12-18T01:05:19.578Z,-0.48
2022-12-18T01:08:22.246Z,-0.52
2022-12-18T01:11:25.300Z,-0.56
2022-12-18T01:14:28.122Z,-0.51
2022-12-18T01:17:31.030Z,-0.55
2022-12-18T01:20:33.891Z,-0.52
2022-12-18T01:23:37.018Z,-0.49
2022-12-18T01:26:39.957Z,-0.50
2022-12-18T01:29:43.647Z,-0.48
2022-12-18T01:32:46.130Z,-0.50
2022-12-18T01:35:48.970Z,-0.49
2022-12-18T01:38:52.889Z,-0.61
2022-12-18T01:42:05.293Z,-0.70
2022-12-18T01:45:16.462Z,-0.64
2022-12-18T01:48:19.973Z,-0.72
2022-12-18T01:51:23.063Z,-0.79
2022-12-18T01:54:25.857Z,-0.69
2022-12-18T01:57:29.743Z,-0.74
2022-12-18T02:00:32.856Z,-0.82
2022-12-18T02:03:35.515Z,-0.84
2022-12-18T02:06:42.401Z,-0.89
2022-12-18T02:09:52.103Z,-0.95
2022-12-18T02:13:20.062Z,-0.93
2022-12-18T02:16:47.189Z,-0.97
2022-12-18T02:20:08.114Z,-1.03
2022-12-18T02:23:31.660Z,-1.00
2022-12-18T02:26:44.846Z,-1.06
2022-12-18T02:29:58.988Z,-1.16
2022-12-18T02:33:08.158Z,-1.21
2022-12-18T02:36:13.999Z,-1.24
2022-12-18T02:39:19.323Z,-1.25
2022-12-18T02:42:33.827Z,-1.24
2022-12-18T02:45:48.085Z,-1.46
2022-12-18T02:48:53.765Z,-1.53
2022-12-18T02:52:20.647Z,-1.36
2022-12-18T02:55:49.935Z,-1.42
2022-12-18T02:59:03.968Z,-1.43
2022-12-18T03:02:25.785Z,-1.41
2022-12-18T03:05:37.443Z,-1.47
2022-12-18T03:08:44.963Z,-1.45
2022-12-18T03:12:13.705Z,-1.51
2022-12-18T03:15:31.775Z,-1.42
2022-12-18T03:18:58.537Z,-1.40
2022-12-18T03:22:04.973Z,-1.67
2022-12-18T03:25:20.117Z,-1.55
2022-12-18T03:28:23.979Z,-1.41
2022-12-18T03:31:37.055Z,-1.51
2022-12-18T03:34:43.471Z,-1.52
2022-12-18T03:37:49.553Z,-1.70
2022-12-18T03:41:03.284Z,-1.71
2022-12-18T03:44:17.546Z,-1.83
2022-12-18T03:47:30.064Z,-1.86
2022-12-18T03:51:02.861Z,-1.84
2022-12-18T03:54:07.947Z,-1.96
2022-12-18T03:57:24.298Z,-2.09
2022-12-18T04:00:31.464Z,-2.11
2022-12-18T04:03:43.932Z,-2.15
2022-12-18T04:06:50.240Z,-2.19
2022-12-18T04:09:57.759Z,-2.26
2022-12-18T04:13:00.668Z,-2.18
2022-12-18T04:16:04.766Z,-2.32
2022-12-18T04:19:08.050Z,-2.42
2022-12-18T04:22:16.079Z,-2.54
2022-12-18T04:25:22.871Z,-2.56
2022-12-18T04:28:42.647Z,-2.59
2022-12-18T04:31:45.829Z,-2.64
2022-12-18T04:34:48.571Z,-2.73
2022-12-18T04:37:54.274Z,-2.73
2022-12-18T04:40:57.912Z,-2.71
2022-12-18T04:44:02.940Z,-2.61
2022-12-18T04:47:05.655Z,-2.58
2022-12-18T04:50:08.560Z,-2.60
2022-12-18T04:53:11.439Z,-2.69
2022-12-18T04:56:15.725Z,-2.79
2022-12-18T04:59:18.338Z,-2.68
2022-12-18T05:02:21.370Z,-2.68
2022-12-18T05:05:24.029Z,-2.76
2022-12-18T05:08:27.028Z,-2.65
2022-12-18T05:11:29.910Z,-2.64
2022-12-18T05:14:32.349Z,-2.67
2022-12-18T05:17:35.070Z,-2.66
2022-12-18T05:20:37.630Z,-2.65
2022-12-18T05:23:41.055Z,-2.54
2022-12-18T05:26:44.088Z,-2.48
2022-12-18T05:29:46.755Z,-2.35
2022-12-18T05:32:49.403Z,-2.31
2022-12-18T05:35:57.458Z,-2.25
2022-12-18T05:39:01.287Z,-2.30
2022-12-18T05:42:04.218Z,-2.22
2022-12-18T05:45:07.284Z,-2.24
2022-12-18T05:48:13.234Z,-2.14
2022-12-18T05:51:17.774Z,-1.89
2022-12-18T05:54:20.484Z,-1.86
2022-12-18T05:57:23.126Z,-2.03
2022-12-18T06:00:25.987Z,-1.93
2022-12-18T06:03:33.714Z,-1.93
2022-12-18T06:06:36.962Z,-2.06
2022-12-18T06:09:39.880Z,-2.19
2022-12-18T06:12:42.756Z,-2.12
2022-12-18T06:15:45.217Z,-2.25
2022-12-18T06:18:48.270Z,-2.22
2022-12-18T06:21:51.781Z,-2.18
2022-12-18T06:24:54.767Z,-2.08
2022-12-18T06:27:57.614Z,-1.90
2022-12-18T06:31:00.828Z,-1.95
2022-12-18T06:34:05.007Z,-1.97
2022-12-18T06:37:07.868Z,-1.88
2022-12-18T06:40:10.792Z,-1.87
2022-12-18T06:43:13.796Z,-1.79
2022-12-18T06:46:16.496Z,-1.89
2022-12-18T06:49:19.391Z,-1.84
2022-12-18T06:52:21.918Z,-1.79
2022-12-18T06:55:24.771Z,-1.67
2022-12-18T06:58:29.675Z,-1.53
2022-12-18T07:01:32.577Z,-1.50
2022-12-18T07:04:55.607Z,-1.37
2022-12-18T07:07:59.372Z,-1.35
2022-12-18T07:11:05.360Z,-1.36
2022-12-18T07:14:08.143Z,-1.30
2022-12-18T07:17:10.958Z,-1.24
2022-12-18T07:20:14.204Z,-1.12
2022-12-18T07:23:16.865Z,-0.96
2022-12-18T07:26:21.537Z,-0.58
2022-12-18T07:29:24.766Z,-0.60
2022-12-18T07:32:30.550Z,-0.66
2022-12-18T07:35:43.442Z,-0.85
2022-12-18T07:38:49.468Z,-0.79
2022-12-18T07:42:10.820Z,-0.82
2022-12-18T07:45:16.732Z,-0.90
2022-12-18T07:48:19.431Z,-0.74
2022-12-18T07:51:22.592Z,-0.75
2022-12-18T07:54:25.928Z,-0.73
2022-12-18T08:00:51.883Z,-0.76
2022-12-18T08:03:54.520Z,-0.59
2022-12-18T08:06:57.390Z,-0.66
2022-12-18T08:09:59.930Z,-0.70
2022-12-18T08:13:05.151Z,-0.67
2022-12-18T08:16:08.751Z,-0.57
2022-12-18T08:19:11.488Z,-0.70
2022-12-18T08:22:14.487Z,-0.66
2022-12-18T08:25:17.132Z,-0.28
2022-12-18T08:28:20.296Z,-0.05
2022-12-18T08:31:23.624Z,0.18
2022-12-18T08:34:27.275Z,0.53
2022-12-18T08:37:30.313Z,1.09
2022-12-18T08:40:33.223Z,2.87
2022-12-18T08:43:54.986Z,2.40
2022-12-18T08:46:57.836Z,2.14
2022-12-18T08:50:00.260Z,1.59
2022-12-18T08:53:03.485Z,1.36
2022-12-18T08:56:06.575Z,1.13
2022-12-18T08:59:15.787Z,1.11
2022-12-18T09:02:21.767Z,1.00
2022-12-18T09:05:24.675Z,0.86
2022-12-18T09:08:28.020Z,0.73
2022-12-18T09:11:31.701Z,0.88
2022-12-18T09:14:34.391Z,0.76
2022-12-18T09:17:37.401Z,0.65
2022-12-18T09:20:40.419Z,0.52
2022-12-18T09:23:43.668Z,0.50
2022-12-18T09:26:47.319Z,0.54
2022-12-18T09:29:50.879Z,0.49
2022-12-18T09:32:54.991Z,0.57
2022-12-18T09:35:57.751Z,0.51
2022-12-18T09:39:04.987Z,0.56
2022-12-18T09:42:21.808Z,0.50
2022-12-18T09:45:25.176Z,0.50
2022-12-18T09:48:38.455Z,0.49
2022-12-18T09:51:48.268Z,0.53
2022-12-18T09:55:09.847Z,0.53
2022-12-18T09:58:25.451Z,0.61
2022-12-18T10:01:38.948Z,0.64
2022-12-18T10:04:58.115Z,0.54
2022-12-18T10:08:12.931Z,0.66
2022-12-18T10:11:53.227Z,0.74
2022-12-18T10:15:24.641Z,0.72
2022-12-18T10:18:45.217Z,0.49
2022-12-18T10:22:18.059Z,0.41
2022-12-18T10:25:35.342Z,0.21
2022-12-18T10:28:41.111Z,0.32
2022-12-18T10:31:44.178Z,0.40
2022-12-18T10:34:48.979Z,0.49
2022-12-18T10:38:22.734Z,0.48
2022-12-18T10:41:33.183Z,0.55
2022-12-18T10:44:35.906Z,-0.12
2022-12-18T10:47:44.658Z,-0.22
2022-12-18T10:54:20.666Z,0.08
2022-12-18T10:57:34.759Z,0.37
2022-12-18T11:00:38.288Z,0.51
2022-12-18T11:03:43.630Z,0.43
2022-12-18T11:07:02.770Z,0.46
2022-12-18T11:10:06.897Z,0.27
2022-12-18T11:13:17.943Z,0.28
2022-12-18T11:16:21.267Z,0.37
2022-12-18T11:19:38.259Z,0.40
2022-12-18T11:22:41.228Z,0.29
2022-12-18T11:25:53.573Z,0.49
2022-12-18T11:29:11.300Z,0.50
2022-12-18T11:32:37.223Z,0.60
2022-12-18T11:35:53.439Z,0.34
2022-12-18T11:38:58.755Z,0.36
2022-12-18T11:42:12.780Z,0.50
2022-12-18T11:45:25.000Z,0.49
2022-12-18T11:48:40.312Z,0.60
2022-12-18T11:51:53.443Z,0.66
2022-12-18T11:55:00.982Z,0.60
2022-12-18T11:58:09.674Z,0.57
2022-12-18T12:01:18.095Z,0.51
2022-12-18T12:05:02.399Z,0.40
2022-12-18T12:08:46.560Z,0.56
2022-12-18T12:11:52.190Z,0.72
2022-12-18T12:15:14.412Z,0.66
2022-12-18T12:18:28.082Z,0.80
2022-12-18T12:21:39.719Z,0.75
2022-12-18T12:24:51.319Z,0.60
2022-12-18T12:28:19.747Z,0.52
2022-12-18T12:31:44.415Z,0.65
2022-12-18T12:35:10.189Z,0.56
2022-12-18T12:38:16.327Z,0.55
2022-12-18T12:41:42.136Z,0.63
2022-12-18T12:44:56.334Z,0.61
2022-12-18T12:48:02.539Z,0.79
2022-12-18T12:51:15.024Z,0.84
2022-12-18T12:54:24.584Z,1.24
2022-12-18T12:57:41.510Z,1.27
2022-12-18T13:01:02.708Z,1.72
2022-12-18T13:04:19.796Z,1.98
2022-12-18T13:07:33.491Z,2.74
2022-12-18T13:10:43.348Z,3.65
2022-12-18T13:13:51.496Z,4.15
2022-12-18T13:17:20.374Z,4.31
2022-12-18T13:20:33.516Z,4.17
2022-12-18T13:23:41.258Z,3.87
2022-12-18T13:26:44.481Z,3.58
2022-12-18T13:29:48.392Z,2.88
2022-12-18T13:33:21.758Z,2.24
2022-12-18T13:36:31.584Z,2.00
2022-12-18T13:39:36.082Z,1.82
2022-12-18T13:42:59.753Z,1.74
2022-12-18T13:46:06.895Z,1.77
2022-12-18T13:49:36.067Z,1.79
2022-12-18T13:52:41.415Z,1.60
2022-12-18T13:55:46.515Z,1.51
2022-12-18T13:59:27.929Z,1.36
2022-12-18T14:02:31.657Z,1.07
2022-12-18T14:05:38.697Z,0.94
2022-12-18T14:08:46.176Z,0.97
2022-12-18T14:11:54.943Z,0.83
2022-12-18T14:14:59.410Z,0.63
2022-12-18T14:18:15.358Z,0.78
2022-12-18T14:21:31.575Z,0.62
2022-12-18T14:24:36.316Z,0.51
2022-12-18T14:27:45.582Z,0.33
2022-12-18T14:34:05.568Z,0.21
2022-12-18T14:37:12.773Z,0.19
2022-12-18T14:40:15.752Z,0.09
2022-12-18T14:50:04.915Z,-0.29
2022-12-18T14:53:32.927Z,-0.27
2022-12-18T14:56:48.413Z,-0.32
2022-12-18T15:03:19.660Z,-0.40
2022-12-18T15:06:32.448Z,-0.48
2022-12-18T15:09:36.814Z,-0.37
2022-12-18T15:13:14.259Z,-0.56
2022-12-18T15:16:22.511Z,-0.76
2022-12-18T15:23:03.891Z,-0.71
2022-12-18T15:29:30.003Z,-0.79
2022-12-18T15:36:15.740Z,-0.81
2022-12-18T15:43:18.994Z,-1.11
2022-12-18T15:46:28.779Z,-1.24
2022-12-18T15:49:33.963Z,-1.38
2022-12-18T15:52:50.235Z,-1.37
2022-12-18T16:02:50.953Z,-1.49
2022-12-18T16:12:44.404Z,-1.75
2022-12-18T16:19:15.872Z,-1.69
2022-12-18T16:28:58.245Z,-1.57
2022-12-18T16:35:23.640Z,-1.70
2022-12-18T16:38:33.978Z,-1.64
2022-12-18T16:54:56.807Z,-1.73
2022-12-18T16:58:00.477Z,-1.67
2022-12-18T17:01:08.738Z,-1.72
2022-12-18T17:04:11.762Z,-1.81
2022-12-18T17:07:17.046Z,-1.85
2022-12-18T17:10:20.065Z,-1.92
2022-12-18T17:13:26.655Z,-2.00
2022-12-18T17:16:29.602Z,-2.04
2022-12-18T17:19:32.386Z,-2.13
2022-12-18T17:22:35.259Z,-2.21
2022-12-18T17:25:40.429Z,-2.26
2022-12-18T17:28:43.704Z,-2.42
2022-12-18T17:31:47.449Z,-2.39
2022-12-18T17:34:50.503Z,-2.27
2022-12-18T17:37:53.383Z,-2.34
2022-12-18T17:41:02.521Z,-2.37
2022-12-18T17:44:05.996Z,-2.38
2022-12-18T17:47:12.291Z,-2.47
2022-12-18T17:50:16.346Z,-2.57
2022-12-18T17:53:19.191Z,-2.57
2022-12-18T17:56:23.805Z,-2.65
2022-12-18T17:59:26.382Z,-2.92
2022-12-18T18:02:29.050Z,-2.87
2022-12-18T18:05:33.306Z,-2.91
2022-12-18T18:08:37.245Z,-2.82
2022-12-18T18:11:59.147Z,-2.89
2022-12-18T18:15:01.976Z,-2.97
2022-12-18T18:18:05.515Z,-3.09
2022-12-18T18:21:09.137Z,-3.18
2022-12-18T18:24:14.782Z,-3.20
2022-12-18T18:27:17.902Z,-3.17
2022-12-18T18:30:20.859Z,-3.02
2022-12-18T18:33:24.058Z,-2.81
2022-12-18T18:36:27.530Z,-2.61
2022-12-18T18:39:30.464Z,-2.75
2022-12-18T18:42:33.636Z,-2.80
2022-12-18T18:45:36.208Z,-2.69
2022-12-18T18:48:41.662Z,-2.77
2022-12-18T18:51:46.607Z,-2.71
2022-12-18T18:55:11.565Z,-2.58
2022-12-18T18:58:12.623Z,-2.60
2022-12-18T19:01:20.481Z,-2.63
2022-12-18T19:04:23.477Z,-2.38
2022-12-18T19:07:30.957Z,-2.32
2022-12-18T19:10:33.852Z,-2.23
2022-12-18T19:13:37.139Z,-2.25
2022-12-18T19:16:40.290Z,-2.24
2022-12-18T19:19:43.666Z,-2.16
2022-12-18T19:22:54.365Z,-2.14
2022-12-18T19:26:26.894Z,-2.18
2022-12-18T19:29:26.799Z,-2.10
2022-12-18T19:32:31.708Z,-2.23
2022-12-18T19:35:34.645Z,-2.17
2022-12-18T19:38:38.079Z,-2.19
2022-12-18T19:41:41.791Z,-2.17
2022-12-18T19:44:48.121Z,-2.16
2022-12-18T19:47:50.871Z,-2.15
2022-12-18T19:50:54.358Z,-2.16
2022-12-18T19:53:59.895Z,-2.07
2022-12-18T19:57:07.266Z,-2.22
2022-12-18T20:00:15.445Z,-2.27
2022-12-18T20:03:28.688Z,-2.23
2022-12-18T20:06:45.190Z,-2.21
2022-12-18T20:09:48.008Z,-2.12
2022-12-18T20:12:50.859Z,-2.25
2022-12-18T20:15:54.393Z,-2.19
2022-12-18T20:18:57.730Z,-2.32
2022-12-18T20:22:01.837Z,-2.12
2022-12-18T20:25:04.839Z,-2.19
2022-12-18T20:28:07.686Z,-2.16
2022-12-18T20:31:13.298Z,-2.12
2022-12-18T20:34:17.112Z,-2.16
2022-12-18T20:37:19.939Z,-2.32
2022-12-18T20:40:24.271Z,-2.27
2022-12-18T20:43:26.766Z,-2.22
2022-12-18T20:46:29.973Z,-2.22
2022-12-18T20:49:32.682Z,-2.25
2022-12-18T20:52:35.666Z,-2.23
2022-12-18T20:55:42.910Z,-2.30
2022-12-18T20:58:45.627Z,-2.28
2022-12-18T21:01:49.438Z,-2.31
2022-12-18T21:04:53.435Z,-2.42
2022-12-18T21:07:56.320Z,-2.44
2022-12-18T21:11:40.732Z,-2.51
2022-12-18T21:14:44.466Z,-2.51
2022-12-18T21:17:47.246Z,-2.63
2022-12-18T21:20:49.962Z,-2.55
2022-12-18T21:23:52.573Z,-2.54
2022-12-18T21:26:55.518Z,-2.71
2022-12-18T21:29:58.281Z,-2.79
2022-12-18T21:33:00.843Z,-2.76
2022-12-18T21:36:07.769Z,-2.78
2022-12-18T21:39:10.695Z,-2.87
2022-12-18T21:42:32.339Z,-2.80
2022-12-18T21:45:34.950Z,-2.90
2022-12-18T21:48:40.738Z,-2.93
2022-12-18T21:51:43.184Z,-3.02
2022-12-18T21:54:45.857Z,-2.86
2022-12-18T21:57:48.380Z,-2.85
2022-12-18T22:00:51.551Z,-2.89
2022-12-18T22:03:54.334Z,-2.88
2022-12-18T22:06:57.583Z,-3.02
2022-12-18T22:10:00.905Z,-3.16
2022-12-18T22:13:07.048Z,-3.26
2022-12-18T22:16:09.560Z,-3.24
2022-12-18T22:19:12.568Z,-3.28
2022-12-18T22:22:17.274Z,-3.24
2022-12-18T22:25:20.047Z,-3.24
2022-12-18T22:28:41.143Z,-3.18
2022-12-18T22:31:44.078Z,-3.20
2022-12-18T22:34:47.097Z,-3.18
2022-12-18T22:37:49.819Z,-3.23
2022-12-18T22:40:52.707Z,-3.19
2022-12-18T22:43:55.740Z,-3.04
2022-12-18T22:47:06.568Z,-2.90
2022-12-18T22:50:13.082Z,-2.96
2022-12-18T22:53:20.006Z,-2.97
2022-12-18T22:56:23.226Z,-3.05
2022-12-18T22:59:26.783Z,-3.12
2022-12-18T23:02:29.656Z,-3.18
2022-12-18T23:05:32.452Z,-3.29
2022-12-18T23:08:35.545Z,-3.33
2022-12-18T23:11:38.174Z,-3.16
2022-12-18T23:14:41.133Z,-3.06
2022-12-18T23:17:43.549Z,-3.12
2022-12-18T23:20:46.576Z,-3.04
2022-12-18T23:23:50.311Z,-3.12
2022-12-18T23:26:53.235Z,-3.02
2022-12-18T23:29:56.022Z,-3.11
2022-12-18T23:33:01.218Z,-2.99
2022-12-18T23:36:05.332Z,-2.94
2022-12-18T23:39:08.294Z,-2.90
2022-12-18T23:42:11.056Z,-2.82
2022-12-18T23:45:17.989Z,-2.83
2022-12-18T23:48:21.240Z,-2.87
2022-12-18T23:51:26.058Z,-2.77
2022-12-18T23:54:32.775Z,-2.77
2022-12-18T23:57:36.663Z,-2.73
